sensor_id;sensor_type;location;lat;lon;timestamp;pressure;altitude;pressure_sealevel;temperature;humidity
46946;BME280;32679;40.810;14.498;2024-02-26T00:01:39;74640.16;;;8.18;100.00
46946;BME280;32679;40.810;14.498;2024-02-26T00:04:04;74655.03;;;8.31;100.00
46946;BME280;32679;40.810;14.498;2024-02-26T00:06:30;74651.63;;;8.23;100.00
46946;BME280;32679;40.810;14.498;2024-02-26T00:08:56;74624.78;;;8.00;100.00
46946;BME280;32679;40.810;14.498;2024-02-26T00:11:22;74618.31;;;8.02;100.00
46946;BME280;32679;40.810;14.498;2024-02-26T00:13:47;74599.63;;;7.83;100.00
46946;BME280;32679;40.810;14.498;2024-02-26T00:16:13;74598.41;;;7.82;100.00
46946;BME280;32679;40.810;14.498;2024-02-26T00:18:38;74609.88;;;7.87;100.00
46946;BME280;32679;40.810;14.498;2024-02-26T00:21:04;74592.44;;;7.77;100.00
46946;BME280;32679;40.810;14.498;2024-02-26T00:23:30;74588.03;;;7.71;100.00
46946;BME280;32679;40.810;14.498;2024-02-26T00:25:55;74570.16;;;7.56;100.00
46946;BME280;32679;40.810;14.498;2024-02-26T00:28:21;74579.09;;;7.64;100.00
46946;BME280;32679;40.810;14.498;2024-02-26T00:30:47;74571.00;;;7.59;100.00
46946;BME280;32679;40.810;14.498;2024-02-26T00:33:16;74568.38;;;7.54;100.00
46946;BME280;32679;40.810;14.498;2024-02-26T00:35:42;74583.28;;;7.67;100.00
46946;BME280;32679;40.810;14.498;2024-02-26T00:38:07;74590.66;;;7.76;100.00
46946;BME280;32679;40.810;14.498;2024-02-26T00:40:33;74586.63;;;7.68;100.00
46946;BME280;32679;40.810;14.498;2024-02-26T00:42:59;74580.53;;;7.67;100.00
46946;BME280;32679;40.810;14.498;2024-02-26T00:45:24;74568.03;;;7.56;100.00
46946;BME280;32679;40.810;14.498;2024-02-26T00:47:50;74574.56;;;7.62;100.00
46946;BME280;32679;40.810;14.498;2024-02-26T00:50:16;74567.78;;;7.54;100.00
46946;BME280;32679;40.810;14.498;2024-02-26T00:52:43;74554.75;;;7.50;100.00
46946;BME280;32679;40.810;14.498;2024-02-26T00:55:08;74540.59;;;7.33;100.00
46946;BME280;32679;40.810;14.498;2024-02-26T00:57:34;74538.34;;;7.26;100.00
46946;BME280;32679;40.810;14.498;2024-02-26T00:59:59;74546.69;;;7.33;100.00
46946;BME280;32679;40.810;14.498;2024-02-26T01:02:26;74558.59;;;7.44;100.00
46946;BME280;32679;40.810;14.498;2024-02-26T01:04:52;74541.56;;;7.31;100.00
46946;BME280;32679;40.810;14.498;2024-02-26T01:07:18;74567.19;;;7.53;100.00
46946;BME280;32679;40.810;14.498;2024-02-26T01:09:44;74550.94;;;7.44;100.00
46946;BME280;32679;40.810;14.498;2024-02-26T01:12:09;74536.41;;;7.29;100.00
46946;BME280;32679;40.810;14.498;2024-02-26T01:14:35;74538.22;;;7.31;100.00
46946;BME280;32679;40.810;14.498;2024-02-26T01:17:00;74552.28;;;7.41;100.00
46946;BME280;32679;40.810;14.498;2024-02-26T01:19:25;74553.47;;;7.42;100.00
46946;BME280;32679;40.810;14.498;2024-02-26T01:21:53;74535.22;;;7.28;100.00
46946;BME280;32679;40.810;14.498;2024-02-26T01:24:18;74558.25;;;7.46;100.00
46946;BME280;32679;40.810;14.498;2024-02-26T01:26:43;74523.31;;;7.18;100.00
46946;BME280;32679;40.810;14.498;2024-02-26T01:29:09;74540.00;;;7.32;100.00
46946;BME280;32679;40.810;14.498;2024-02-26T01:31:34;74543.34;;;7.33;100.00
46946;BME280;32679;40.810;14.498;2024-02-26T01:34:02;74535.22;;;7.28;100.00
46946;BME280;32679;40.810;14.498;2024-02-26T01:36:27;74512.59;;;7.09;100.00
46946;BME280;32679;40.810;14.498;2024-02-26T01:38:54;74507.81;;;7.05;100.00
46946;BME280;32679;40.810;14.498;2024-02-26T01:41:19;74522.13;;;7.17;100.00
46946;BME280;32679;40.810;14.498;2024-02-26T01:43:44;74512.13;;;7.04;100.00
46946;BME280;32679;40.810;14.498;2024-02-26T01:46:13;74507.81;;;7.05;100.00
46946;BME280;32679;40.810;14.498;2024-02-26T01:48:42;74518.91;;;7.12;100.00
46946;BME280;32679;40.810;14.498;2024-02-26T01:51:10;74534.75;;;7.23;100.00
46946;BME280;32679;40.810;14.498;2024-02-26T01:53:37;74519.50;;;7.13;100.00
46946;BME280;32679;40.810;14.498;2024-02-26T01:56:03;74529.25;;;7.23;100.00
46946;BME280;32679;40.810;14.498;2024-02-26T01:58:30;74529.63;;;7.21;100.00
46946;BME280;32679;40.810;14.498;2024-02-26T02:00:56;74521.53;;;7.17;100.00
46946;BME280;32679;40.810;14.498;2024-02-26T02:03:23;74527.84;;;7.20;100.00
46946;BME280;32679;40.810;14.498;2024-02-26T02:05:48;74557.63;;;7.45;100.00
46946;BME280;32679;40.810;14.498;2024-02-26T02:08:14;74538.34;;;7.26;100.00
46946;BME280;32679;40.810;14.498;2024-02-26T02:10:41;74538.94;;;7.27;100.00
46946;BME280;32679;40.810;14.498;2024-02-26T02:13:07;74517.50;;;7.08;100.00
46946;BME280;32679;40.810;14.498;2024-02-26T02:15:32;74505.28;;;7.07;100.00
46946;BME280;32679;40.810;14.498;2024-02-26T02:17:58;74518.91;;;7.12;100.00
46946;BME280;32679;40.810;14.498;2024-02-26T02:20:32;74473.25;;;6.75;100.00
46946;BME280;32679;40.810;14.498;2024-02-26T02:23:01;74482.81;;;6.83;100.00
46946;BME280;32679;40.810;14.498;2024-02-26T02:25:27;74465.31;;;6.66;100.00
46946;BME280;32679;40.810;14.498;2024-02-26T02:27:54;74475.66;;;6.77;100.00
46946;BME280;32679;40.810;14.498;2024-02-26T02:30:38;74459.56;;;6.64;100.00
46946;BME280;32679;40.810;14.498;2024-02-26T02:33:04;74494.72;;;6.94;100.00
46946;BME280;32679;40.810;14.498;2024-02-26T02:35:30;74503.06;;;7.01;100.00
46946;BME280;32679;40.810;14.498;2024-02-26T02:37:57;74487.09;;;6.82;100.00
46946;BME280;32679;40.810;14.498;2024-02-26T02:40:23;74499.50;;;6.98;100.00
46946;BME280;32679;40.810;14.498;2024-02-26T02:42:49;74498.66;;;6.95;100.00
46946;BME280;32679;40.810;14.498;2024-02-26T02:45:15;74463.28;;;6.62;100.00
46946;BME280;32679;40.810;14.498;2024-02-26T02:47:41;74469.69;;;6.72;100.00
46946;BME280;32679;40.810;14.498;2024-02-26T02:50:07;74485.69;;;6.79;100.00
46946;BME280;32679;40.810;14.498;2024-02-26T02:52:33;74458.50;;;6.58;100.00
46946;BME280;32679;40.810;14.498;2024-02-26T02:54:58;74472.91;;;6.77;100.00
46946;BME280;32679;40.810;14.498;2024-02-26T02:57:24;74454.19;;;6.59;100.00
46946;BME280;32679;40.810;14.498;2024-02-26T02:59:49;74451.81;;;6.57;100.00
46946;BME280;32679;40.810;14.498;2024-02-26T03:02:15;74486.34;;;6.87;100.00
46946;BME280;32679;40.810;14.498;2024-02-26T03:04:41;74462.56;;;6.66;99.75
46946;BME280;32679;40.810;14.498;2024-02-26T03:07:07;74463.75;;;6.67;99.94
46946;BME280;32679;40.810;14.498;2024-02-26T03:09:32;74470.41;;;6.68;100.00
46946;BME280;32679;40.810;14.498;2024-02-26T03:11:58;74439.66;;;6.44;100.00
46946;BME280;32679;40.810;14.498;2024-02-26T03:14:23;74438.72;;;6.46;100.00
46946;BME280;32679;40.810;14.498;2024-02-26T03:16:49;74457.31;;;6.57;100.00
46946;BME280;32679;40.810;14.498;2024-02-26T03:19:15;74453.38;;;6.56;100.00
46946;BME280;32679;40.810;14.498;2024-02-26T03:21:41;74459.34;;;6.61;100.00
46946;BME280;32679;40.810;14.498;2024-02-26T03:24:07;74462.09;;;6.61;100.00
46946;BME280;32679;40.810;14.498;2024-02-26T03:26:36;74448.25;;;6.54;100.00
46946;BME280;32679;40.810;14.498;2024-02-26T03:29:01;74433.13;;;6.39;100.00
46946;BME280;32679;40.810;14.498;2024-02-26T03:31:27;74442.28;;;6.49;99.69
46946;BME280;32679;40.810;14.498;2024-02-26T03:33:53;74476.97;;;6.74;98.56
46946;BME280;32679;40.810;14.498;2024-02-26T03:36:18;74480.31;;;6.74;99.19
46946;BME280;32679;40.810;14.498;2024-02-26T03:38:43;74454.78;;;6.60;100.00
46946;BME280;32679;40.810;14.498;2024-02-26T03:41:09;74487.56;;;6.88;99.23
46946;BME280;32679;40.810;14.498;2024-02-26T03:43:35;74470.28;;;6.73;97.81
46946;BME280;32679;40.810;14.498;2024-02-26T03:46:00;74464.47;;;6.63;99.04
46946;BME280;32679;40.810;14.498;2024-02-26T03:48:26;74474.00;;;6.71;99.06
46946;BME280;32679;40.810;14.498;2024-02-26T03:50:51;74481.16;;;6.77;98.65
46946;BME280;32679;40.810;14.498;2024-02-26T03:53:17;74476.84;;;6.78;99.40
46946;BME280;32679;40.810;14.498;2024-02-26T03:55:45;74461.13;;;6.63;100.00
46946;BME280;32679;40.810;14.498;2024-02-26T03:58:14;74460.16;;;6.64;100.00
46946;BME280;32679;40.810;14.498;2024-02-26T04:00:42;74486.72;;;6.85;100.00
46946;BME280;32679;40.810;14.498;2024-02-26T04:03:07;74464.09;;;6.65;100.00
46946;BME280;32679;40.810;14.498;2024-02-26T04:05:36;74471.59;;;6.69;100.00
46946;BME280;32679;40.810;14.498;2024-02-26T04:08:02;74465.53;;;6.69;100.00
46946;BME280;32679;40.810;14.498;2024-02-26T04:10:33;74472.06;;;6.74;100.00
46946;BME280;32679;40.810;14.498;2024-02-26T04:13:00;74470.41;;;6.68;100.00
46946;BME280;32679;40.810;14.498;2024-02-26T04:15:25;74456.59;;;6.61;100.00
46946;BME280;32679;40.810;14.498;2024-02-26T04:17:50;74478.75;;;6.75;100.00
46946;BME280;32679;40.810;14.498;2024-02-26T04:20:16;74459.34;;;6.61;100.00
46946;BME280;32679;40.810;14.498;2024-02-26T04:22:42;74466.72;;;6.70;100.00
46946;BME280;32679;40.810;14.498;2024-02-26T04:25:07;74454.56;;;6.57;100.00
46946;BME280;32679;40.810;14.498;2024-02-26T04:27:40;74481.03;;;6.82;100.00
46946;BME280;32679;40.810;14.498;2024-02-26T04:30:07;74453.72;;;6.54;100.00
46946;BME280;32679;40.810;14.498;2024-02-26T04:32:32;74458.97;;;6.63;100.00
46946;BME280;32679;40.810;14.498;2024-02-26T04:34:59;74450.75;;;6.51;100.00
46946;BME280;32679;40.810;14.498;2024-02-26T04:37:25;74451.34;;;6.52;100.00
46946;BME280;32679;40.810;14.498;2024-02-26T04:39:50;74460.16;;;6.64;100.00
46946;BME280;32679;40.810;14.498;2024-02-26T04:42:16;74456.59;;;6.61;100.00
46946;BME280;32679;40.810;14.498;2024-02-26T04:44:42;74465.53;;;6.69;100.00
46946;BME280;32679;40.810;14.498;2024-02-26T04:47:07;74478.75;;;6.75;100.00
46946;BME280;32679;40.810;14.498;2024-02-26T04:49:33;74464.47;;;6.63;100.00
46946;BME280;32679;40.810;14.498;2024-02-26T04:51:59;74448.38;;;6.49;100.00
46946;BME280;32679;40.810;14.498;2024-02-26T04:54:24;74445.63;;;6.49;100.00
46946;BME280;32679;40.810;14.498;2024-02-26T04:56:50;74464.34;;;6.68;100.00
46946;BME280;32679;40.810;14.498;2024-02-26T04:59:15;74447.44;;;6.51;100.00
46946;BME280;32679;40.810;14.498;2024-02-26T05:01:40;74447.06;;;6.53;100.00
46946;BME280;32679;40.810;14.498;2024-02-26T05:04:06;74456.72;;;6.56;99.84
46946;BME280;32679;40.810;14.498;2024-02-26T05:06:32;74461.00;;;6.67;99.75
46946;BME280;32679;40.810;14.498;2024-02-26T05:08:57;74452.78;;;6.55;100.00
46946;BME280;32679;40.810;14.498;2024-02-26T05:11:23;74447.44;;;6.51;99.54
46946;BME280;32679;40.810;14.498;2024-02-26T05:13:48;74447.06;;;6.53;98.64
46946;BME280;32679;40.810;14.498;2024-02-26T05:16:15;74468.13;;;6.73;98.02
46946;BME280;32679;40.810;14.498;2024-02-26T05:18:40;74457.91;;;6.57;98.80
46946;BME280;32679;40.810;14.498;2024-02-26T05:21:09;74447.19;;;6.48;97.99
46946;BME280;32679;40.810;14.498;2024-02-26T05:23:38;74460.66;;;6.57;98.20
46946;BME280;32679;40.810;14.498;2024-02-26T05:26:03;74465.88;;;6.67;98.35
46946;BME280;32679;40.810;14.498;2024-02-26T05:28:31;74456.13;;;6.56;98.74
46946;BME280;32679;40.810;14.498;2024-02-26T05:30:58;74460.16;;;6.64;99.05
46946;BME280;32679;40.810;14.498;2024-02-26T05:33:24;74479.22;;;6.80;99.42
46946;BME280;32679;40.810;14.498;2024-02-26T05:35:50;74470.28;;;6.73;99.26
46946;BME280;32679;40.810;14.498;2024-02-26T05:38:15;74476.00;;;6.75;99.22
46946;BME280;32679;40.810;14.498;2024-02-26T05:40:41;74448.84;;;6.54;99.46
46946;BME280;32679;40.810;14.498;2024-02-26T05:43:07;74458.59;;;6.65;99.17
46946;BME280;32679;40.810;14.498;2024-02-26T05:45:32;74479.22;;;6.80;99.04
46946;BME280;32679;40.810;14.498;2024-02-26T05:47:58;74459.56;;;6.64;99.87
46946;BME280;32679;40.810;14.498;2024-02-26T05:50:24;74478.63;;;6.80;100.00
46946;BME280;32679;40.810;14.498;2024-02-26T05:52:49;74483.78;;;6.82;100.00
46946;BME280;32679;40.810;14.498;2024-02-26T05:55:15;74489.94;;;6.90;100.00
46946;BME280;32679;40.810;14.498;2024-02-26T05:57:40;74536.78;;;7.27;99.09
46946;BME280;32679;40.810;14.498;2024-02-26T06:00:07;74603.78;;;7.87;97.15
46946;BME280;32679;40.810;14.498;2024-02-26T06:02:33;74692.75;;;8.70;91.43
46946;BME280;32679;40.810;14.498;2024-02-26T06:04:58;74795.88;;;9.51;86.64
46946;BME280;32679;40.810;14.498;2024-02-26T06:07:24;74861.41;;;10.12;82.01
46946;BME280;32679;40.810;14.498;2024-02-26T06:09:50;74950.19;;;10.85;78.85
46946;BME280;32679;40.810;14.498;2024-02-26T06:12:16;75014.13;;;11.40;74.70
46946;BME280;32679;40.810;14.498;2024-02-26T06:14:42;75118.44;;;12.31;71.14
46946;BME280;32679;40.810;14.498;2024-02-26T06:17:08;75174.22;;;12.74;69.01
46946;BME280;32679;40.810;14.498;2024-02-26T06:19:34;75180.19;;;12.79;65.40
46946;BME280;32679;40.810;14.498;2024-02-26T06:22:00;75171.81;;;12.72;65.33
46946;BME280;32679;40.810;14.498;2024-02-26T06:24:25;75173.22;;;12.75;65.96
46946;BME280;32679;40.810;14.498;2024-02-26T06:26:51;75153.09;;;12.61;64.44
46946;BME280;32679;40.810;14.498;2024-02-26T06:29:17;75122.38;;;12.32;65.18
46946;BME280;32679;40.810;14.498;2024-02-26T06:31:43;75158.50;;;12.65;64.00
46946;BME280;32679;40.810;14.498;2024-02-26T06:34:10;75185.41;;;12.88;63.42
46946;BME280;32679;40.810;14.498;2024-02-26T06:36:36;75238.84;;;13.29;60.46
46946;BME280;32679;40.810;14.498;2024-02-26T06:39:02;75294.34;;;13.81;58.78
46946;BME280;32679;40.810;14.498;2024-02-26T06:41:30;75279.56;;;13.63;57.90
46946;BME280;32679;40.810;14.498;2024-02-26T06:43:56;75327.44;;;14.04;56.99
46946;BME280;32679;40.810;14.498;2024-02-26T06:46:25;75378.22;;;14.52;55.05
46946;BME280;32679;40.810;14.498;2024-02-26T06:48:55;75388.41;;;14.61;54.89
46946;BME280;32679;40.810;14.498;2024-02-26T06:51:21;75439.31;;;15.04;53.75
46946;BME280;32679;40.810;14.498;2024-02-26T06:53:57;75438.91;;;15.06;53.35
46946;BME280;32679;40.810;14.498;2024-02-26T06:56:26;75499.22;;;15.55;52.16
46946;BME280;32679;40.810;14.498;2024-02-26T06:58:51;75596.97;;;16.38;49.80
46946;BME280;32679;40.810;14.498;2024-02-26T07:01:18;75662.59;;;16.96;48.70
46946;BME280;32679;40.810;14.498;2024-02-26T07:03:44;75653.78;;;16.91;49.28
46946;BME280;32679;40.810;14.498;2024-02-26T07:06:13;75687.38;;;17.20;47.35
46946;BME280;32679;40.810;14.498;2024-02-26T07:08:39;75594.00;;;16.36;48.60
46946;BME280;32679;40.810;14.498;2024-02-26T07:11:10;75619.78;;;16.58;48.56
46946;BME280;32679;40.810;14.498;2024-02-26T07:13:35;75572.38;;;16.17;48.61
46946;BME280;32679;40.810;14.498;2024-02-26T07:16:01;75637.56;;;16.70;47.14
46946;BME280;32679;40.810;14.498;2024-02-26T07:18:27;75701.97;;;17.27;46.93
46946;BME280;32679;40.810;14.498;2024-02-26T07:20:52;75714.19;;;17.40;45.15
46946;BME280;32679;40.810;14.498;2024-02-26T07:23:18;75738.00;;;17.58;45.59
46946;BME280;32679;40.810;14.498;2024-02-26T07:25:45;75717.97;;;17.39;43.48
46946;BME280;32679;40.810;14.498;2024-02-26T07:28:15;75727.97;;;17.52;43.87
46946;BME280;32679;40.810;14.498;2024-02-26T07:30:45;75851.47;;;18.54;40.56
46946;BME280;32679;40.810;14.498;2024-02-26T07:33:13;75828.03;;;18.35;40.70
46946;BME280;32679;40.810;14.498;2024-02-26T07:35:46;75667.78;;;16.98;43.13
46946;BME280;32679;40.810;14.498;2024-02-26T07:38:15;75678.56;;;17.08;43.73
46946;BME280;32679;40.810;14.498;2024-02-26T07:40:43;75754.00;;;17.76;42.48
46946;BME280;32679;40.810;14.498;2024-02-26T07:43:25;75656.38;;;16.89;44.93
46946;BME280;32679;40.810;14.498;2024-02-26T07:46:20;75796.22;;;18.08;42.71
46946;BME280;32679;40.810;14.498;2024-02-26T07:49:10;75789.22;;;17.97;43.52
46946;BME280;32679;40.810;14.498;2024-02-26T07:51:40;75765.22;;;17.84;42.82
46946;BME280;32679;40.810;14.498;2024-02-26T07:54:08;75763.22;;;17.79;43.43
46946;BME280;32679;40.810;14.498;2024-02-26T07:56:58;75650.38;;;16.84;43.38
46946;BME280;32679;40.810;14.498;2024-02-26T07:59:46;75758.00;;;17.77;45.14
46946;BME280;32679;40.810;14.498;2024-02-26T08:02:15;75645.59;;;16.80;47.71
46946;BME280;32679;40.810;14.498;2024-02-26T08:04:50;75629.75;;;16.64;49.41
46946;BME280;32679;40.810;14.498;2024-02-26T08:07:23;75627.16;;;16.66;48.44
46946;BME280;32679;40.810;14.498;2024-02-26T08:09:52;75712.38;;;17.39;46.04
46946;BME280;32679;40.810;14.498;2024-02-26T08:12:19;75701.97;;;17.27;45.50
46946;BME280;32679;40.810;14.498;2024-02-26T08:15:04;75618.34;;;16.54;43.46
46946;BME280;32679;40.810;14.498;2024-02-26T08:17:32;75584.38;;;16.28;44.09
46946;BME280;32679;40.810;14.498;2024-02-26T08:20:21;75535.63;;;15.84;44.04
46946;BME280;32679;40.810;14.498;2024-02-26T08:22:57;75643.16;;;16.77;41.71
46946;BME280;32679;40.810;14.498;2024-02-26T08:25:24;75601.19;;;16.42;41.29
46946;BME280;32679;40.810;14.498;2024-02-26T08:28:02;75692.00;;;17.21;39.58
46946;BME280;32679;40.810;14.498;2024-02-26T08:30:31;75716.38;;;17.40;39.35
46946;BME280;32679;40.810;14.498;2024-02-26T08:32:57;75721.19;;;17.44;38.71
46946;BME280;32679;40.810;14.498;2024-02-26T08:35:29;75689.97;;;17.17;39.21
46946;BME280;32679;40.810;14.498;2024-02-26T08:38:06;75766.81;;;17.83;37.39
46946;BME280;32679;40.810;14.498;2024-02-26T08:40:54;75875.72;;;18.77;35.79
46946;BME280;32679;40.810;14.498;2024-02-26T08:43:51;75868.91;;;18.69;36.76
46946;BME280;32679;40.810;14.498;2024-02-26T08:46:20;75873.69;;;18.73;36.83
46946;BME280;32679;40.810;14.498;2024-02-26T08:48:57;75898.53;;;18.97;36.80
46946;BME280;32679;40.810;14.498;2024-02-26T08:51:27;75866.91;;;18.72;37.53
46946;BME280;32679;40.810;14.498;2024-02-26T08:53:54;75759.59;;;17.76;38.79
46946;BME280;32679;40.810;14.498;2024-02-26T08:56:23;75741.56;;;17.61;40.48
46946;BME280;32679;40.810;14.498;2024-02-26T08:58:48;75676.78;;;17.06;41.60
46946;BME280;32679;40.810;14.498;2024-02-26T09:01:18;75644.00;;;16.81;43.27
46946;BME280;32679;40.810;14.498;2024-02-26T09:03:45;75573.00;;;16.18;44.39
46946;BME280;32679;40.810;14.498;2024-02-26T09:06:11;75638.41;;;16.73;43.57
46946;BME280;32679;40.810;14.498;2024-02-26T09:08:38;75707.97;;;17.33;43.37
46946;BME280;32679;40.810;14.498;2024-02-26T09:11:23;75729.97;;;17.49;40.73
46946;BME280;32679;40.810;14.498;2024-02-26T09:13:49;75754.19;;;17.72;41.18
46946;BME280;32679;40.810;14.498;2024-02-26T09:16:17;75812.44;;;18.21;40.39
46946;BME280;32679;40.810;14.498;2024-02-26T09:18:52;75895.34;;;18.92;39.22
46946;BME280;32679;40.810;14.498;2024-02-26T09:21:43;75764.00;;;17.83;43.93
46946;BME280;32679;40.810;14.498;2024-02-26T09:24:24;75806.63;;;18.19;43.15
46946;BME280;32679;40.810;14.498;2024-02-26T09:27:06;75750.41;;;17.73;42.04
46946;BME280;32679;40.810;14.498;2024-02-26T09:29:32;75802.22;;;18.13;41.42
46946;BME280;32679;40.810;14.498;2024-02-26T09:31:59;75886.53;;;18.87;41.33
46946;BME280;32679;40.810;14.498;2024-02-26T09:34:29;75923.56;;;19.16;40.74
46946;BME280;32679;40.810;14.498;2024-02-26T09:37:09;75878.09;;;18.79;41.90
46946;BME280;32679;40.810;14.498;2024-02-26T09:40:03;75932.56;;;19.30;40.68
46946;BME280;32679;40.810;14.498;2024-02-26T09:42:46;75921.75;;;19.14;41.75
46946;BME280;32679;40.810;14.498;2024-02-26T09:45:49;75906.13;;;19.01;40.70
46946;BME280;32679;40.810;14.498;2024-02-26T09:48:35;75965.22;;;19.53;40.32
46946;BME280;32679;40.810;14.498;2024-02-26T09:51:23;75856.25;;;18.58;41.93
46946;BME280;32679;40.810;14.498;2024-02-26T09:54:05;75733.78;;;17.54;44.64
46946;BME280;32679;40.810;14.498;2024-02-26T09:56:55;75847.66;;;18.56;42.34
46946;BME280;32679;40.810;14.498;2024-02-26T10:00:05;75969.03;;;19.59;40.33
46946;BME280;32679;40.810;14.498;2024-02-26T10:07:19;75900.13;;;18.96;41.99
46946;BME280;32679;40.810;14.498;2024-02-26T10:14:10;75911.16;;;19.07;42.88
46946;BME280;32679;40.810;14.498;2024-02-26T10:17:20;75930.75;;;19.22;42.18
46946;BME280;32679;40.810;14.498;2024-02-26T10:20:31;75926.97;;;19.16;41.68
46946;BME280;32679;40.810;14.498;2024-02-26T10:23:39;75979.25;;;19.68;41.67
46946;BME280;32679;40.810;14.498;2024-02-26T10:26:45;76023.53;;;20.03;40.86
46946;BME280;32679;40.810;14.498;2024-02-26T10:29:59;75956.41;;;19.48;41.38
46946;BME280;32679;40.810;14.498;2024-02-26T10:33:47;76051.19;;;20.26;39.75
46946;BME280;32679;40.810;14.498;2024-02-26T10:37:07;76062.78;;;20.38;40.08
46946;BME280;32679;40.810;14.498;2024-02-26T10:40:19;75981.84;;;19.65;40.09
46946;BME280;32679;40.810;14.498;2024-02-26T10:42:49;76093.69;;;20.60;39.57
46946;BME280;32679;40.810;14.498;2024-02-26T10:46:06;76148.41;;;21.06;38.34
46946;BME280;32679;40.810;14.498;2024-02-26T10:49:13;75981.47;;;19.67;39.88
46946;BME280;32679;40.810;14.498;2024-02-26T10:52:36;75975.84;;;19.60;41.62
46946;BME280;32679;40.810;14.498;2024-02-26T10:55:57;75939.19;;;19.29;42.54
46946;BME280;32679;40.810;14.498;2024-02-26T10:59:02;75926.75;;;19.21;42.12
46946;BME280;32679;40.810;14.498;2024-02-26T11:01:57;75921.94;;;19.17;42.65
46946;BME280;32679;40.810;14.498;2024-02-26T11:05:09;75884.91;;;18.88;42.92
46946;BME280;32679;40.810;14.498;2024-02-26T11:08:21;75852.06;;;18.55;41.94
46946;BME280;32679;40.810;14.498;2024-02-26T11:11:20;75940.56;;;19.32;42.24
46946;BME280;32679;40.810;14.498;2024-02-26T11:14:10;75889.31;;;18.87;42.96
46946;BME280;32679;40.810;14.498;2024-02-26T11:17:21;75966.41;;;19.54;43.50
46946;BME280;32679;40.810;14.498;2024-02-26T11:23:01;75826.84;;;18.33;46.50
46946;BME280;32679;40.810;14.498;2024-02-26T11:25:30;75803.44;;;18.14;46.12
46946;BME280;32679;40.810;14.498;2024-02-26T11:28:25;75798.63;;;18.10;45.60
46946;BME280;32679;40.810;14.498;2024-02-26T11:31:05;75751.56;;;17.67;45.58
46946;BME280;32679;40.810;14.498;2024-02-26T11:33:46;75835.25;;;18.41;46.23
46946;BME280;32679;40.810;14.498;2024-02-26T11:36:17;75832.84;;;18.39;45.23
46946;BME280;32679;40.810;14.498;2024-02-26T11:38:53;75863.06;;;18.67;43.92
46946;BME280;32679;40.810;14.498;2024-02-26T11:41:24;75807.84;;;18.20;45.23
46946;BME280;32679;40.810;14.498;2024-02-26T11:43:58;75706.78;;;17.32;46.56
46946;BME280;32679;40.810;14.498;2024-02-26T11:46:38;75764.59;;;17.83;47.81
46946;BME280;32679;40.810;14.498;2024-02-26T12:02:01;75746.78;;;17.70;51.22
46946;BME280;32679;40.810;14.498;2024-02-26T12:04:27;75712.78;;;17.37;53.24
46946;BME280;32679;40.810;14.498;2024-02-26T12:07:12;75705.19;;;17.33;53.46
46946;BME280;32679;40.810;14.498;2024-02-26T12:09:47;75723.56;;;17.46;54.36
46946;BME280;32679;40.810;14.498;2024-02-26T12:12:21;75646.59;;;16.85;55.69
46946;BME280;32679;40.810;14.498;2024-02-26T12:14:59;75671.38;;;17.01;56.16
46946;BME280;32679;40.810;14.498;2024-02-26T12:17:33;75689.38;;;17.24;55.18
46946;BME280;32679;40.810;14.498;2024-02-26T12:20:10;75727.19;;;17.49;55.42
46946;BME280;32679;40.810;14.498;2024-02-26T12:23:03;75762.81;;;17.82;54.87
46946;BME280;32679;40.810;14.498;2024-02-26T12:29:18;75692.38;;;17.19;56.32
46946;BME280;32679;40.810;14.498;2024-02-26T12:32:33;75615.56;;;16.54;59.09
46946;BME280;32679;40.810;14.498;2024-02-26T12:35:27;75689.56;;;17.12;58.78
46946;BME280;32679;40.810;14.498;2024-02-26T12:37:58;75627.56;;;16.64;58.86
46946;BME280;32679;40.810;14.498;2024-02-26T12:41:10;75685.00;;;17.18;57.18
46946;BME280;32679;40.810;14.498;2024-02-26T12:44:14;75660.56;;;16.92;59.41
46946;BME280;32679;40.810;14.498;2024-02-26T12:46:50;75588.00;;;16.31;61.06
46946;BME280;32679;40.810;14.498;2024-02-26T12:49:49;75567.59;;;16.13;60.88
46946;BME280;32679;40.810;14.498;2024-02-26T12:52:20;75591.97;;;16.32;60.28
46946;BME280;32679;40.810;14.498;2024-02-26T12:55:01;75619.19;;;16.57;60.68
46946;BME280;32679;40.810;14.498;2024-02-26T12:57:45;75536.84;;;15.92;63.01
46946;BME280;32679;40.810;14.498;2024-02-26T13:00:54;75566.41;;;16.12;63.64
46946;BME280;32679;40.810;14.498;2024-02-26T13:03:28;75513.06;;;15.67;65.80
46946;BME280;32679;40.810;14.498;2024-02-26T13:06:34;75534.25;;;15.87;66.17
46946;BME280;32679;40.810;14.498;2024-02-26T13:09:14;75451.91;;;15.15;69.40
46946;BME280;32679;40.810;14.498;2024-02-26T13:15:16;75466.28;;;15.27;68.12
46946;BME280;32679;40.810;14.498;2024-02-26T13:23:27;75458.47;;;15.20;68.97
46946;BME280;32679;40.810;14.498;2024-02-26T13:25:59;75515.84;;;15.67;68.36
46946;BME280;32679;40.810;14.498;2024-02-26T13:35:34;75474.06;;;15.34;71.04
46946;BME280;32679;40.810;14.498;2024-02-26T13:44:16;75449.28;;;15.10;70.31
46946;BME280;32679;40.810;14.498;2024-02-26T13:46:42;75505.22;;;15.60;70.85
46946;BME280;32679;40.810;14.498;2024-02-26T13:49:34;75538.22;;;15.88;68.22
46946;BME280;32679;40.810;14.498;2024-02-26T13:52:07;75470.47;;;15.31;69.22
46946;BME280;32679;40.810;14.498;2024-02-26T13:54:54;75447.69;;;15.11;68.93
46946;BME280;32679;40.810;14.498;2024-02-26T13:57:39;75438.72;;;15.04;68.96
46946;BME280;32679;40.810;14.498;2024-02-26T14:00:52;75490.41;;;15.43;68.67
46946;BME280;32679;40.810;14.498;2024-02-26T14:03:24;75452.50;;;15.15;68.08
46946;BME280;32679;40.810;14.498;2024-02-26T14:09:31;75394.59;;;14.68;67.58
46946;BME280;32679;40.810;14.498;2024-02-26T14:12:02;75481.44;;;15.35;65.83
46946;BME280;32679;40.810;14.498;2024-02-26T14:14:52;75465.66;;;15.27;66.64
46946;BME280;32679;40.810;14.498;2024-02-26T14:17:27;75460.50;;;15.25;65.34